Terminal Aerodrome Forecast
Issued by NWS

Home | Current Version | Previous Version | Text Only | Print | Product List | Glossary Off
Versions: 1 2 3 4 5 6 7 8 9 10 11 12 13 14 15 16 17 18 19 20 21

554
FTUS43 KLOT 220520
TAFDPA
TAF
KDPA 220520Z 2206/2306 06004KT P6SM OVC150
     FM221800 08011KT P6SM BKN250
     FM230200 07006KT P6SM SCT250=

USA.gov is the U.S. government's official web portal to all federal, state and local government web resources and services.